createdAt,value
2023-05-09T00:02:35.081Z,24.75
2023-05-09T00:07:38.042Z,23.03
2023-05-09T00:12:42.173Z,25.00
2023-05-09T00:17:46.380Z,23.35
2023-05-09T00:22:49.237Z,15.98
2023-05-09T00:27:52.005Z,18.90
2023-05-09T00:32:54.983Z,12.77
2023-05-09T00:37:57.763Z,11.43
2023-05-09T00:43:00.916Z,13.45
2023-05-09T00:48:03.975Z,12.30
2023-05-09T00:53:06.985Z,10.75
2023-05-09T00:58:09.977Z,12.70
2023-05-09T01:03:13.003Z,11.57
2023-05-09T01:08:30.453Z,10.95
2023-05-09T01:13:33.251Z,11.57
2023-05-09T01:18:41.362Z,11.02
2023-05-09T01:23:53.180Z,12.68
2023-05-09T01:29:19.271Z,11.40
2023-05-09T01:34:23.405Z,9.87
2023-05-09T01:39:27.698Z,10.30
2023-05-09T01:44:36.338Z,7.85
2023-05-09T01:49:40.777Z,9.60
2023-05-09T01:54:45.503Z,7.70
2023-05-09T01:59:49.472Z,9.73
2023-05-09T02:04:54.127Z,9.20
2023-05-09T02:09:59.965Z,9.07
2023-05-09T02:20:10.344Z,7.35
2023-05-09T02:25:15.979Z,6.70
2023-05-09T02:30:24.752Z,6.18
2023-05-09T02:35:29.606Z,6.85
2023-05-09T02:40:36.724Z,6.65
2023-05-09T02:45:39.617Z,4.72
2023-05-09T02:50:43.840Z,5.32
2023-05-09T02:55:46.956Z,5.40
2023-05-09T03:00:49.793Z,5.53
2023-05-09T03:05:52.677Z,4.32
2023-05-09T03:10:55.726Z,4.55
2023-05-09T03:16:00.214Z,3.53
2023-05-09T03:21:03.323Z,3.63
2023-05-09T03:26:07.401Z,2.95
2023-05-09T03:31:12.036Z,3.60
2023-05-09T03:36:15.140Z,4.05
2023-05-09T03:41:19.791Z,3.47
2023-05-09T03:46:24.141Z,3.60
2023-05-09T03:51:27.435Z,4.25
2023-05-09T03:56:32.276Z,3.77
2023-05-09T04:01:35.408Z,4.18
2023-05-09T04:06:39.723Z,4.03
2023-05-09T04:11:45.240Z,4.10
2023-05-09T04:16:49.351Z,4.10
2023-05-09T04:21:52.554Z,4.35
2023-05-09T04:26:55.524Z,3.60
2023-05-09T04:32:02.521Z,3.95
2023-05-09T04:37:06.010Z,4.22
2023-05-09T04:42:11.213Z,4.57
2023-05-09T04:47:14.147Z,4.50
2023-05-09T04:52:18.188Z,3.80
2023-05-09T04:57:21.513Z,3.20
2023-05-09T05:02:30.058Z,3.97
2023-05-09T05:07:32.870Z,3.88
2023-05-09T05:12:36.187Z,3.53
2023-05-09T05:17:40.571Z,3.13
2023-05-09T05:22:45.283Z,2.90
2023-05-09T05:27:48.636Z,3.40
2023-05-09T05:32:52.041Z,3.33
2023-05-09T05:37:56.775Z,3.40
2023-05-09T05:43:01.114Z,3.45
2023-05-09T05:48:04.750Z,3.33
2023-05-09T05:53:08.326Z,3.17
2023-05-09T05:58:11.393Z,3.10
2023-05-09T06:03:15.066Z,3.10
2023-05-09T06:08:23.256Z,2.80
2023-05-09T06:13:26.409Z,3.00
2023-05-09T06:18:38.121Z,3.30
2023-05-09T06:23:56.985Z,3.05
2023-05-09T06:29:04.835Z,3.13
2023-05-09T06:34:08.105Z,2.97
2023-05-09T06:39:11.010Z,3.20
2023-05-09T06:44:13.878Z,2.40
2023-05-09T06:49:16.689Z,3.35
2023-05-09T06:54:19.655Z,3.55
2023-05-09T06:59:22.567Z,3.35
2023-05-09T07:04:25.386Z,3.20
2023-05-09T07:09:31.070Z,3.63
2023-05-09T07:14:33.850Z,4.00
2023-05-09T07:19:36.637Z,3.70
2023-05-09T07:24:39.553Z,3.90
2023-05-09T07:29:42.406Z,4.20
2023-05-09T07:34:45.722Z,4.13
2023-05-09T07:39:48.688Z,3.92
2023-05-09T07:44:51.616Z,4.00
2023-05-09T07:49:54.338Z,4.30
2023-05-09T07:54:57.287Z,4.38
2023-05-09T08:00:00.046Z,4.18
2023-05-09T08:05:03.740Z,4.18
2023-05-09T08:10:07.300Z,4.22
2023-05-09T08:15:10.553Z,4.28
2023-05-09T08:20:13.718Z,5.10
2023-05-09T08:25:18.624Z,4.65
2023-05-09T08:30:21.528Z,4.50
2023-05-09T08:35:25.067Z,5.25
2023-05-09T08:40:27.857Z,4.07
2023-05-09T08:45:31.260Z,5.47
2023-05-09T08:50:35.914Z,6.82
2023-05-09T08:55:39.113Z,6.57
2023-05-09T09:00:42.196Z,6.90
2023-05-09T09:05:45.737Z,6.22
2023-05-09T09:10:48.776Z,5.28
2023-05-09T09:15:53.790Z,4.75
2023-05-09T09:21:07.009Z,4.88
2023-05-09T09:26:10.044Z,4.28
2023-05-09T09:31:44.765Z,4.03
2023-05-09T09:36:48.812Z,5.82
2023-05-09T09:41:51.679Z,5.07
2023-05-09T09:46:56.248Z,6.63
2023-05-09T09:51:59.722Z,5.40
2023-05-09T09:57:03.119Z,7.07
2023-05-09T10:02:09.974Z,5.60
2023-05-09T10:07:15.122Z,9.20
2023-05-09T10:12:20.593Z,9.68
2023-05-09T10:17:24.027Z,8.40
2023-05-09T10:22:27.060Z,6.93
2023-05-09T10:27:32.699Z,4.15
2023-05-09T10:32:52.887Z,7.35
2023-05-09T10:37:59.339Z,8.48
2023-05-09T10:43:02.193Z,7.65
2023-05-09T10:48:09.238Z,6.13
2023-05-09T10:53:14.532Z,5.05
2023-05-09T10:58:29.347Z,5.75
2023-05-09T11:03:53.975Z,5.15
2023-05-09T11:08:56.823Z,6.13
2023-05-09T11:13:59.590Z,7.38
2023-05-09T11:19:02.536Z,7.30
2023-05-09T11:24:17.533Z,6.35
2023-05-09T11:29:20.339Z,6.93
2023-05-09T11:34:23.197Z,6.70
2023-05-09T11:39:26.165Z,7.82
2023-05-09T11:44:31.248Z,8.60
2023-05-09T11:49:34.064Z,9.82
2023-05-09T11:54:39.629Z,9.90
2023-05-09T12:04:45.247Z,10.75
2023-05-09T12:09:50.149Z,11.73
2023-05-09T12:14:53.719Z,13.47
2023-05-09T12:20:00.276Z,15.18
2023-05-09T12:25:07.720Z,18.27
2023-05-09T12:30:11.192Z,21.40
2023-05-09T12:35:14.381Z,22.33
2023-05-09T12:40:17.475Z,27.08
2023-05-09T12:45:20.676Z,29.23
2023-05-09T12:50:23.473Z,31.50
2023-05-09T12:55:26.226Z,28.73
2023-05-09T13:00:29.358Z,25.55
2023-05-09T13:05:32.613Z,23.80
2023-05-09T13:10:35.704Z,24.50
2023-05-09T13:15:38.583Z,23.38
2023-05-09T13:20:41.455Z,21.92
2023-05-09T13:25:44.649Z,19.75
2023-05-09T13:30:47.620Z,15.55
2023-05-09T13:35:51.347Z,13.73
2023-05-09T13:40:54.256Z,12.50
2023-05-09T13:45:57.164Z,11.60
2023-05-09T13:51:01.623Z,12.35
2023-05-09T13:56:04.656Z,10.68
2023-05-09T14:01:07.949Z,11.88
2023-05-09T14:06:12.978Z,13.43
2023-05-09T14:11:16.985Z,11.73
2023-05-09T14:16:21.496Z,11.88
2023-05-09T14:21:24.294Z,13.63
2023-05-09T14:26:27.266Z,12.52
2023-05-09T14:31:30.185Z,11.80
2023-05-09T14:36:33.474Z,8.60
2023-05-09T14:41:36.672Z,8.43
2023-05-09T14:46:39.541Z,7.57
2023-05-09T14:51:42.386Z,9.13
2023-05-09T14:56:45.372Z,4.22
2023-05-09T15:01:48.757Z,3.30
2023-05-09T15:06:51.514Z,3.28
2023-05-09T15:11:55.302Z,2.50
2023-05-09T15:17:01.669Z,3.75
2023-05-09T15:22:05.241Z,3.45
2023-05-09T15:27:08.118Z,2.88
2023-05-09T15:32:11.266Z,2.90
2023-05-09T15:37:14.240Z,1.90
2023-05-09T15:42:17.062Z,2.53
2023-05-09T15:47:20.031Z,2.42
2023-05-09T15:52:22.719Z,2.35
2023-05-09T15:57:26.024Z,2.65
2023-05-09T16:02:29.452Z,2.67
2023-05-09T16:07:33.989Z,2.92
2023-05-09T16:12:38.310Z,4.28
2023-05-09T16:17:41.639Z,2.05
2023-05-09T16:22:44.569Z,3.92
2023-05-09T16:27:47.356Z,1.83
2023-05-09T16:32:50.239Z,1.33
2023-05-09T16:37:53.042Z,2.58
2023-05-09T16:42:56.160Z,2.85
2023-05-09T16:48:00.750Z,2.05
2023-05-09T16:53:05.198Z,2.95
2023-05-09T16:58:08.217Z,2.33
2023-05-09T17:03:11.174Z,2.33
2023-05-09T17:08:13.980Z,1.98
2023-05-09T17:13:16.782Z,2.60
2023-05-09T17:18:33.060Z,1.13
2023-05-09T17:23:39.302Z,1.90
2023-05-09T17:28:42.034Z,3.03
2023-05-09T17:33:44.818Z,3.22
2023-05-09T17:38:47.717Z,3.53
2023-05-09T17:43:52.356Z,4.20
2023-05-09T17:48:55.468Z,4.27
2023-05-09T17:53:58.368Z,4.20
2023-05-09T17:59:01.163Z,4.28
2023-05-09T18:04:04.078Z,3.95
2023-05-09T18:09:07.428Z,2.25
2023-05-09T18:14:10.253Z,3.85
2023-05-09T18:19:13.250Z,3.83
2023-05-09T18:24:16.990Z,4.25
2023-05-09T18:29:20.030Z,3.40
2023-05-09T18:34:22.886Z,3.22
2023-05-09T18:39:26.119Z,3.50
2023-05-09T18:44:30.297Z,2.65
2023-05-09T18:49:33.108Z,3.10
2023-05-09T18:54:38.596Z,3.40
2023-05-09T18:59:41.373Z,3.13
2023-05-09T19:04:46.497Z,2.88
2023-05-09T19:09:49.814Z,2.78
2023-05-09T19:14:52.688Z,3.28
2023-05-09T19:19:55.609Z,3.47
2023-05-09T19:24:59.272Z,3.47
2023-05-09T19:30:02.195Z,3.05
2023-05-09T19:35:06.146Z,2.78
2023-05-09T19:40:09.702Z,2.63
2023-05-09T19:45:12.784Z,2.63
2023-05-09T19:50:22.240Z,3.05
2023-05-09T19:55:25.117Z,3.67
2023-05-09T20:00:28.347Z,2.92
2023-05-09T20:05:32.849Z,3.00
2023-05-09T20:10:35.839Z,3.20
2023-05-09T20:15:39.128Z,2.55
2023-05-09T20:20:42.657Z,2.10
2023-05-09T20:25:45.440Z,2.40
2023-05-09T20:30:48.896Z,1.80
2023-05-09T20:35:51.749Z,1.40
2023-05-09T20:40:54.523Z,2.35
2023-05-09T20:45:57.534Z,2.22
2023-05-09T20:51:00.771Z,2.15
2023-05-09T20:56:03.945Z,1.95
2023-05-09T21:01:06.990Z,2.25
2023-05-09T21:06:09.873Z,2.00
2023-05-09T21:11:12.758Z,1.90
2023-05-09T21:16:15.552Z,2.10
2023-05-09T21:21:18.578Z,2.10
2023-05-09T21:26:23.435Z,2.15
2023-05-09T21:31:27.054Z,2.15
2023-05-09T21:36:29.972Z,2.03
2023-05-09T21:41:32.838Z,2.47
2023-05-09T21:46:36.226Z,2.13
2023-05-09T21:51:39.279Z,2.25
2023-05-09T21:56:43.009Z,2.22
2023-05-09T22:01:46.759Z,1.30
2023-05-09T22:06:49.650Z,2.40
2023-05-09T22:11:53.404Z,2.20
2023-05-09T22:16:56.280Z,2.33
2023-05-09T22:21:59.484Z,2.13
2023-05-09T22:27:02.509Z,2.25
2023-05-09T22:32:08.005Z,1.50
2023-05-09T22:37:11.095Z,2.10
2023-05-09T22:42:13.908Z,2.25
2023-05-09T22:47:16.970Z,2.30
2023-05-09T22:52:20.005Z,2.30
2023-05-09T22:57:24.167Z,2.40
2023-05-09T23:02:27.162Z,3.40
2023-05-09T23:07:30.133Z,3.88
2023-05-09T23:12:33.076Z,4.03
2023-05-09T23:17:35.950Z,4.60
2023-05-09T23:22:38.950Z,4.30
2023-05-09T23:27:42.445Z,4.53
2023-05-09T23:32:45.339Z,5.35
2023-05-09T23:37:48.167Z,4.97
2023-05-09T23:42:51.076Z,5.13
2023-05-09T23:47:54.178Z,4.80
2023-05-09T23:52:57.000Z,3.33
2023-05-09T23:58:01.016Z,5.45
